Time;durP1;ratioP1;P1;durP2;ratioP2;P2;SDS_P1;SDS_P2;PMS_P1;PMS_P2;Temp;Humidity;BMP_temperature;BMP_pressure;BME280_temperature;BME280_humidity;BME280_pressure;Samples;Min_cycle;Max_cycle;Signal;HPM_P1;HPM_P2
2022/01/27 00:00:59;;;;;;;15.23;8.55;;;;;;;1.63;59.64;100507.00;5053640;28;20013;-37
2022/01/27 00:03:43;;;;;;;16.90;8.43;;;;;;;1.61;59.33;100514.97;5053366;28;20469;-37
2022/01/27 00:06:10;;;;;;;14.90;8.27;;;;;;;1.68;59.50;100510.06;5053476;28;20021;-37
2022/01/27 00:08:59;;;;;;;15.35;8.70;;;;;;;1.89;59.50;100510.06;5053256;28;20040;-37
2022/01/27 00:11:24;;;;;;;16.20;8.73;;;;;;;2.02;59.60;100512.47;5053263;28;20132;-37
2022/01/27 00:13:58;;;;;;;18.70;8.90;;;;;;;1.87;59.04;100515.44;5053168;28;20021;-37
2022/01/27 00:16:25;;;;;;;15.98;8.55;;;;;;;1.89;59.59;100516.16;5053277;28;20025;-37
2022/01/27 00:18:53;;;;;;;15.60;7.82;;;;;;;1.91;59.41;100516.84;5053437;28;20021;-38
2022/01/27 00:21:26;;;;;;;15.23;8.20;;;;;;;1.66;60.20;100527.75;5053536;28;20024;-38
2022/01/27 00:23:52;;;;;;;17.17;8.50;;;;;;;1.72;60.92;100528.03;5052337;28;20029;-38
2022/01/27 00:26:18;;;;;;;15.40;8.43;;;;;;;1.51;59.75;100500.97;5053257;28;20025;-37
2022/01/27 00:28:44;;;;;;;15.60;8.23;;;;;;;1.44;61.68;100524.22;5053065;28;20108;-37
2022/01/27 00:31:09;;;;;;;15.13;8.15;;;;;;;1.61;60.70;100514.97;5053135;28;20027;-37
2022/01/27 00:33:35;;;;;;;16.77;8.30;;;;;;;1.79;60.50;100524.91;5053421;28;20031;-37
2022/01/27 00:36:00;;;;;;;16.25;8.40;;;;;;;1.88;60.38;100521.53;5052904;28;20016;-37
2022/01/27 00:38:26;;;;;;;15.52;8.18;;;;;;;1.73;60.61;100513.13;5052718;28;20508;-37
2022/01/27 00:40:51;;;;;;;15.55;8.27;;;;;;;1.62;60.50;100500.91;5052837;28;20028;-38
2022/01/27 00:43:18;;;;;;;16.70;8.20;;;;;;;1.77;60.88;100506.66;5052917;28;20028;-38
2022/01/27 00:45:43;;;;;;;16.63;8.77;;;;;;;1.72;60.31;100503.59;5052420;28;20025;-37
2022/01/27 00:48:09;;;;;;;16.15;8.23;;;;;;;1.68;60.90;100510.06;5051522;28;20056;-37
2022/01/27 00:50:36;;;;;;;18.70;8.65;;;;;;;1.71;61.56;100502.78;5052443;28;20024;-38
2022/01/27 00:53:05;;;;;;;15.85;8.32;;;;;;;1.97;60.32;100505.00;5052215;28;20031;-36
2022/01/27 00:55:37;;;;;;;17.20;8.77;;;;;;;1.81;60.65;100497.59;5052751;28;20120;-36
2022/01/27 00:58:24;;;;;;;17.40;9.02;;;;;;;1.91;60.18;100502.91;5052198;28;20029;-36
2022/01/27 01:00:58;;;;;;;16.52;8.60;;;;;;;1.65;61.34;100505.06;5052303;28;20017;-37
2022/01/27 01:03:33;;;;;;;16.70;8.23;;;;;;;1.87;60.41;100494.44;5052458;28;20045;-37
2022/01/27 01:34:29;;;;;;;15.30;8.60;;;;;;;2.24;59.55;100483.44;5051362;28;20037;-37
2022/01/27 01:39:22;;;;;;;13.82;7.95;;;;;;;2.20;59.29;100483.84;5051794;28;20028;-37
2022/01/27 01:41:47;;;;;;;16.08;8.52;;;;;;;2.49;59.26;100479.53;5051765;28;20109;-37
2022/01/27 01:44:13;;;;;;;17.08;8.27;;;;;;;2.42;58.99;100470.53;5051788;28;20029;-38
2022/01/27 01:46:38;;;;;;;14.27;7.95;;;;;;;2.24;60.06;100470.31;5051521;28;20029;-37
2022/01/27 01:49:04;;;;;;;16.75;7.85;;;;;;;2.07;59.14;100466.50;5051547;28;20033;-37
2022/01/27 01:51:32;;;;;;;16.08;8.43;;;;;;;1.91;59.73;100466.16;5051308;28;20037;-37
2022/01/27 01:53:57;;;;;;;14.00;7.78;;;;;;;1.98;60.29;100464.69;5051845;28;20025;-37
2022/01/27 01:56:23;;;;;;;15.55;7.80;;;;;;;1.84;61.34;100465.81;5051687;28;20387;-37
2022/01/27 01:58:48;;;;;;;15.52;8.07;;;;;;;2.25;59.69;100461.47;5051465;28;20435;-37
2022/01/27 02:01:14;;;;;;;14.40;7.53;;;;;;;2.10;58.84;100455.75;5051466;28;20032;-37
2022/01/27 02:03:39;;;;;;;14.05;8.10;;;;;;;2.11;59.90;100457.41;5050029;28;20033;-37
2022/01/27 02:06:05;;;;;;;15.57;8.30;;;;;;;1.91;59.76;100453.03;5051478;28;20060;-37
2022/01/27 02:19:18;;;;;;;15.63;8.05;;;;;;;2.36;59.53;100452.66;5051568;28;20027;-37
2022/01/27 02:21:49;;;;;;;14.68;7.47;;;;;;;2.28;57.73;100458.56;5051198;28;20096;-37
2022/01/27 02:24:15;;;;;;;14.50;7.35;;;;;;;1.93;59.24;100459.78;5031795;28;20045;-37
2022/01/27 02:26:41;;;;;;;15.38;7.32;;;;;;;2.19;59.93;100455.91;5031407;28;20480;-37
2022/01/27 02:29:07;;;;;;;12.52;6.95;;;;;;;2.07;60.28;100455.16;5031012;28;20034;-37
2022/01/27 02:31:32;;;;;;;15.20;7.90;;;;;;;2.06;60.39;100445.63;5031345;28;20032;-37
2022/01/27 02:34:00;;;;;;;13.50;7.03;;;;;;;2.16;59.19;100457.00;5031327;28;20485;-37
2022/01/27 02:36:25;;;;;;;13.57;7.18;;;;;;;2.14;59.83;100451.88;5038516;28;20117;-38
2022/01/27 02:38:51;;;;;;;15.20;7.95;;;;;;;2.14;59.14;100457.13;5050916;28;20104;-37
2022/01/27 02:41:16;;;;;;;15.40;7.38;;;;;;;2.22;59.85;100451.22;5050770;28;20029;-35
2022/01/27 02:43:42;;;;;;;15.15;7.35;;;;;;;2.28;59.25;100445.44;5051074;28;20321;-38
2022/01/27 02:46:17;;;;;;;13.13;7.20;;;;;;;2.31;59.93;100460.13;5049746;28;20036;-38
2022/01/27 02:48:42;;;;;;;13.45;7.20;;;;;;;2.08;60.38;100457.66;5053806;28;20452;-36
2022/01/27 02:51:07;;;;;;;12.77;7.18;;;;;;;2.27;59.01;100456.91;5054745;28;20032;-37
2022/01/27 02:53:33;;;;;;;16.38;8.13;;;;;;;2.55;58.83;100454.50;5055020;28;20443;-38
2022/01/27 02:55:58;;;;;;;15.20;7.70;;;;;;;2.38;59.56;100449.91;5054977;28;20083;-37
2022/01/27 02:58:24;;;;;;;15.73;8.25;;;;;;;2.46;59.20;100450.91;5054872;28;20020;-37
2022/01/27 03:00:49;;;;;;;13.90;7.90;;;;;;;2.31;59.54;100453.06;5055208;28;20021;-37
2022/01/27 03:03:15;;;;;;;13.93;7.38;;;;;;;2.15;59.44;100445.69;5055272;28;20039;-37
2022/01/27 03:05:40;;;;;;;15.45;8.05;;;;;;;2.41;59.00;100444.38;5054649;28;20457;-37
2022/01/27 03:08:06;;;;;;;13.35;7.05;;;;;;;2.63;58.01;100454.69;5055238;28;20044;-37
2022/01/27 03:10:33;;;;;;;14.73;7.50;;;;;;;2.51;58.18;100442.59;5053178;28;20052;-37
2022/01/27 03:13:00;;;;;;;13.13;7.13;;;;;;;2.37;58.37;100435.94;5054245;28;20029;-37
2022/01/27 03:15:29;;;;;;;13.90;7.40;;;;;;;2.42;58.72;100441.63;5052962;28;20400;-37
2022/01/27 03:17:54;;;;;;;13.23;7.40;;;;;;;2.52;58.40;100433.78;5054348;28;20134;-37
2022/01/27 03:20:19;;;;;;;14.35;7.65;;;;;;;2.53;58.86;100436.28;5054160;28;20033;-37
2022/01/27 03:22:45;;;;;;;13.82;6.65;;;;;;;2.25;58.89;100444.91;5054230;28;20032;-37
2022/01/27 03:25:11;;;;;;;13.88;7.00;;;;;;;2.05;60.13;100438.72;5054288;28;20404;-37
2022/01/27 03:27:36;;;;;;;14.60;6.90;;;;;;;2.15;59.26;100442.19;5054466;28;20075;-37
2022/01/27 03:30:03;;;;;;;13.82;7.13;;;;;;;2.36;59.67;100434.25;5054226;28;20370;-37
2022/01/27 03:32:29;;;;;;;16.50;7.90;;;;;;;2.49;59.52;100439.28;5054489;28;20389;-36
2022/01/27 03:34:54;;;;;;;12.50;7.20;;;;;;;2.52;59.09;100434.59;5053909;28;20473;-37
2022/01/27 03:37:20;;;;;;;15.05;7.55;;;;;;;2.85;58.80;100440.47;5054266;28;20029;-37
2022/01/27 03:39:45;;;;;;;15.77;8.07;;;;;;;2.85;57.87;100440.47;5054110;28;20131;-37
2022/01/27 03:42:11;;;;;;;13.73;7.50;;;;;;;2.69;59.65;100443.63;5054079;28;20025;-37
2022/01/27 03:44:36;;;;;;;16.00;7.63;;;;;;;2.94;59.08;100433.56;5053796;28;20033;-37
2022/01/27 03:47:03;;;;;;;16.42;7.78;;;;;;;2.79;57.68;100443.66;5053705;28;20036;-37
2022/01/27 03:49:28;;;;;;;11.65;6.88;;;;;;;2.63;58.21;100446.81;5052118;28;20365;-36
2022/01/27 03:51:59;;;;;;;12.25;7.00;;;;;;;2.63;58.26;100444.19;5053716;28;20037;-36
2022/01/27 03:54:24;;;;;;;14.07;7.10;;;;;;;2.78;57.29;100451.66;5053926;28;20366;-36
2022/01/27 03:56:49;;;;;;;11.60;6.80;;;;;;;2.86;57.11;100449.22;5053002;28;20036;-36
2022/01/27 03:59:16;;;;;;;12.55;6.72;;;;;;;2.48;58.35;100445.53;5052310;28;20098;-36
2022/01/27 04:01:44;;;;;;;10.15;6.20;;;;;;;2.47;57.85;100454.34;5052225;28;20025;-38
2022/01/27 04:04:10;;;;;;;11.02;6.57;;;;;;;2.71;57.15;100454.00;5035483;28;20556;-36
2022/01/27 04:06:39;;;;;;;11.02;6.18;;;;;;;2.65;57.05;100457.19;5053664;28;20029;-37
2022/01/27 04:09:06;;;;;;;10.45;6.05;;;;;;;2.68;57.30;100464.78;5051850;28;20091;-37
2022/01/27 04:11:31;;;;;;;11.25;6.13;;;;;;;2.75;56.17;100465.91;5053561;28;20037;-37
2022/01/27 04:13:57;;;;;;;10.02;6.07;;;;;;;2.74;55.98;100465.09;5052955;28;20118;-36
2022/01/27 04:16:22;;;;;;;11.43;5.90;;;;;;;2.68;57.20;100473.50;5053370;28;20029;-37
2022/01/27 04:18:48;;;;;;;12.02;6.18;;;;;;;2.50;57.55;100467.25;5053685;28;20040;-37
2022/01/27 04:21:14;;;;;;;12.10;6.55;;;;;;;2.83;57.35;100467.88;5053699;28;20025;-37
2022/01/27 04:23:40;;;;;;;13.68;7.20;;;;;;;2.77;57.46;100477.13;5053209;28;20021;-37
2022/01/27 04:26:06;;;;;;;12.20;6.88;;;;;;;2.40;58.12;100471.59;5053351;28;20025;-37
2022/01/27 04:28:34;;;;;;;17.83;9.30;;;;;;;2.74;57.43;100472.97;5053130;28;20111;-37
2022/01/27 04:31:03;;;;;;;14.10;6.65;;;;;;;2.59;56.82;100473.47;5052964;28;20074;-37
2022/01/27 04:33:31;;;;;;;16.02;8.60;;;;;;;2.61;56.93;100475.03;5053243;28;20102;-37
2022/01/27 04:35:59;;;;;;;16.45;8.20;;;;;;;2.46;56.56;100482.44;5053166;28;20451;-37
2022/01/27 04:38:53;;;;;;;12.48;5.80;;;;;;;2.51;56.06;100480.25;5053352;28;20033;-37
2022/01/27 04:41:20;;;;;;;9.75;5.90;;;;;;;2.51;57.56;100485.50;5053443;28;20045;-37
2022/01/27 04:46:32;;;;;;;11.25;6.03;;;;;;;2.72;56.12;100492.47;5051519;28;20053;-37
2022/01/27 04:49:01;;;;;;;10.30;6.13;;;;;;;2.47;56.93;100499.03;5052760;28;20036;-38
2022/01/27 04:51:28;;;;;;;13.98;6.40;;;;;;;2.82;57.16;100501.22;5052834;28;20488;-51
2022/01/27 04:56:23;;;;;;;12.07;7.22;;;;;;;2.97;56.65;100514.81;5052494;28;20035;-51
2022/01/27 04:58:53;;;;;;;11.63;7.00;;;;;;;3.00;56.94;100511.91;5051871;28;20041;-50
2022/01/27 05:01:21;;;;;;;;;;;;;;;2.90;57.58;100513.69;5052540;28;20031;-52
2022/01/27 05:03:56;;;;;;;15.10;6.82;;;;;;;2.80;57.89;100515.44;5051825;28;19909;-47
2022/01/27 05:06:22;;;;;;;14.48;7.32;;;;;;;2.76;58.16;100516.69;5052595;28;20060;-52
2022/01/27 05:08:47;;;;;;;20.98;10.90;;;;;;;2.73;57.62;100521.25;5052016;28;20079;-49
2022/01/27 05:11:21;;;;;;;13.73;6.93;;;;;;;2.58;57.72;100519.94;5051705;28;20041;-49
2022/01/27 05:13:53;;;;;;;13.38;7.25;;;;;;;2.61;58.23;100518.84;5047773;28;20029;-48
2022/01/27 05:16:18;;;;;;;15.40;7.25;;;;;;;2.60;57.88;100532.97;5051905;28;20060;-48
2022/01/27 05:18:44;;;;;;;13.52;6.80;;;;;;;2.53;57.79;100524.75;5052547;28;20442;-49
2022/01/27 05:21:09;;;;;;;13.73;6.78;;;;;;;2.51;57.82;100539.81;5051721;28;20471;-50
2022/01/27 05:23:35;;;;;;;14.95;6.53;;;;;;;2.45;58.48;100535.09;5051380;28;20117;-51
2022/01/27 05:26:00;;;;;;;12.88;6.72;;;;;;;2.41;58.29;100537.16;5051578;28;20429;-50
2022/01/27 05:28:26;;;;;;;14.23;6.75;;;;;;;2.87;56.96;100525.28;5051611;28;20429;-52
2022/01/27 05:30:51;;;;;;;13.50;6.50;;;;;;;2.57;58.04;100526.19;5050843;28;20115;-52
2022/01/27 05:33:17;;;;;;;12.98;6.70;;;;;;;2.63;57.95;100528.28;5051210;28;20037;-52
2022/01/27 05:35:45;;;;;;;12.73;6.78;;;;;;;2.70;57.89;100533.81;5048763;28;20167;-52
2022/01/27 05:38:13;;;;;;;13.07;6.85;;;;;;;2.70;56.82;100534.66;5031517;28;20061;-52
2022/01/27 05:40:38;;;;;;;13.20;7.28;;;;;;;2.68;57.66;100531.31;5031653;28;20104;-51
2022/01/27 05:43:04;;;;;;;13.73;6.50;;;;;;;2.74;57.12;100541.31;5031286;28;20450;-50
2022/01/27 05:45:29;;;;;;;15.13;6.85;;;;;;;2.74;56.87;100541.31;5031639;28;20417;-50
2022/01/27 05:47:55;;;;;;;9.88;6.03;;;;;;;2.88;56.54;100532.22;5031345;28;20091;-51
2022/01/27 05:50:20;;;;;;;11.48;6.13;;;;;;;2.71;56.71;100538.13;5030200;28;20037;-52
2022/01/27 05:52:45;;;;;;;11.20;6.93;;;;;;;2.74;56.85;100546.59;5030052;28;20037;-52
2022/01/27 05:55:12;;;;;;;13.13;6.63;;;;;;;2.69;57.39;100553.19;5029565;28;20032;-52
2022/01/27 05:57:37;;;;;;;10.60;6.20;;;;;;;2.73;57.05;100546.72;5029803;28;20041;-51
2022/01/27 06:00:03;;;;;;;15.50;8.10;;;;;;;2.74;56.98;100554.47;5030211;28;20055;-49
2022/01/27 06:02:29;;;;;;;19.20;9.68;;;;;;;2.69;57.41;100554.03;5028938;28;20035;-52
2022/01/27 06:04:54;;;;;;;20.42;10.85;;;;;;;2.67;57.55;100557.75;5030222;28;20033;-50
2022/01/27 06:07:20;;;;;;;17.52;8.43;;;;;;;2.71;56.89;100557.34;5030542;28;20030;-49
2022/01/27 06:09:45;;;;;;;28.80;14.90;;;;;;;2.64;57.99;100555.38;5030813;28;20053;-49
2022/01/27 06:12:11;;;;;;;12.93;6.32;;;;;;;2.75;57.60;100555.28;5030095;28;20030;-51
2022/01/27 06:14:36;;;;;;;11.63;6.70;;;;;;;3.01;57.78;100560.06;5042189;28;20116;-49
2022/01/27 06:17:02;;;;;;;23.48;12.27;;;;;;;3.29;56.01;100553.19;5049673;28;20025;-49
2022/01/27 06:19:28;;;;;;;16.60;8.73;;;;;;;3.22;56.31;100562.59;5050495;28;20033;-50
2022/01/27 06:21:54;;;;;;;12.35;6.25;;;;;;;3.21;56.01;100564.41;5049494;28;20060;-52
2022/01/27 06:24:19;;;;;;;23.15;11.60;;;;;;;3.09;55.82;100560.25;5050134;28;20056;-53
2022/01/27 06:26:45;;;;;;;31.13;16.50;;;;;;;3.46;56.06;100556.97;5050956;28;20465;-52
2022/01/27 06:29:10;;;;;;;12.98;6.53;;;;;;;3.29;55.31;100558.47;5050295;28;20434;-52
2022/01/27 06:31:35;;;;;;;13.52;7.78;;;;;;;3.05;54.94;100553.59;5050119;28;20048;-51
2022/01/27 06:34:01;;;;;;;19.48;8.52;;;;;;;2.93;55.46;100563.34;5050124;28;20074;-37
2022/01/27 06:36:26;;;;;;;16.45;8.13;;;;;;;2.79;55.25;100563.75;5050181;28;20029;-38
2022/01/27 06:38:52;;;;;;;15.75;7.85;;;;;;;2.65;56.40;100559.69;5050323;28;20048;-37
2022/01/27 06:41:17;;;;;;;14.70;7.05;;;;;;;2.62;55.80;100568.66;5050285;28;20096;-37
2022/01/27 06:43:43;;;;;;;14.98;7.43;;;;;;;2.76;56.24;100575.38;5050231;28;20484;-37
2022/01/27 06:46:08;;;;;;;15.02;7.40;;;;;;;2.96;55.96;100572.78;5049824;28;20396;-37
2022/01/27 06:48:34;;;;;;;16.10;6.68;;;;;;;3.07;56.21;100572.69;5049820;28;20032;-38
2022/01/27 06:51:01;;;;;;;14.15;5.88;;;;;;;3.17;54.54;100573.53;5049862;28;20028;-38
2022/01/27 06:53:27;;;;;;;15.27;5.97;;;;;;;2.93;55.58;100581.75;5049786;28;20033;-39
2022/01/27 06:55:54;;;;;;;13.25;5.55;;;;;;;3.21;55.13;100580.19;5050920;28;20036;-37
2022/01/27 06:58:19;;;;;;;9.93;5.35;;;;;;;3.04;55.98;100584.28;5050555;28;20055;-38
2022/01/27 07:00:45;;;;;;;10.38;5.78;;;;;;;3.28;54.89;100580.50;5049969;28;20036;-38
2022/01/27 07:03:10;;;;;;;36.33;14.55;;;;;;;3.50;55.15;100585.50;5050288;28;20536;-38
2022/01/27 07:05:37;;;;;;;21.50;9.48;;;;;;;3.38;54.62;100591.84;5049904;28;20480;-38
2022/01/27 07:08:03;;;;;;;11.63;6.13;;;;;;;3.33;54.97;100587.00;5050370;28;20052;-38
2022/01/27 07:10:28;;;;;;;11.68;6.63;;;;;;;3.52;54.48;100580.09;5049618;28;20149;-37
2022/01/27 07:12:54;;;;;;;12.48;5.82;;;;;;;3.49;54.60;100591.72;5049495;28;20017;-38
2022/01/27 07:15:19;;;;;;;10.98;6.10;;;;;;;3.40;54.63;100600.44;5049631;28;20028;-38
2022/01/27 07:17:45;;;;;;;12.48;5.60;;;;;;;3.40;54.65;100597.00;5049540;28;20029;-37
2022/01/27 07:20:12;;;;;;;12.85;6.57;;;;;;;3.41;54.33;100602.13;5050171;28;20092;-38
2022/01/27 07:22:38;;;;;;;12.27;5.95;;;;;;;3.74;53.86;100609.78;5049793;28;20047;-38
2022/01/27 07:25:05;;;;;;;15.15;6.85;;;;;;;3.65;54.43;100600.88;5049380;28;20060;-38
2022/01/27 07:27:32;;;;;;;11.63;6.00;;;;;;;3.89;53.58;100603.13;5049499;28;20036;-37
2022/01/27 07:29:57;;;;;;;13.40;7.82;;;;;;;3.87;54.50;100605.88;5049234;28;20118;-37
2022/01/27 07:32:23;;;;;;;15.05;8.05;;;;;;;3.86;54.33;100604.22;5048349;28;20103;-38
2022/01/27 07:34:48;;;;;;;12.00;6.95;;;;;;;3.81;53.99;100609.09;5052554;28;20526;-38
2022/01/27 07:37:14;;;;;;;13.05;7.18;;;;;;;4.06;53.88;100601.59;5053154;28;20349;-38
2022/01/27 07:39:39;;;;;;;12.63;6.22;;;;;;;4.02;54.06;100602.84;5053474;28;20021;-38
2022/01/27 07:42:05;;;;;;;14.85;7.22;;;;;;;4.21;53.39;100604.63;5053701;28;20029;-37
2022/01/27 07:44:30;;;;;;;16.35;8.68;;;;;;;4.36;53.85;100603.22;5053126;28;20032;-37
2022/01/27 07:46:56;;;;;;;13.57;7.05;;;;;;;4.25;53.65;100595.47;5053072;28;20029;-37
2022/01/27 07:49:21;;;;;;;15.98;7.53;;;;;;;4.38;52.73;100608.31;5053393;28;20029;-37
2022/01/27 07:51:47;;;;;;;13.18;7.35;;;;;;;4.45;52.56;100612.88;5052800;28;20052;-37
2022/01/27 07:54:12;;;;;;;13.07;7.00;;;;;;;4.38;52.29;100618.84;5052988;28;20135;-37
2022/01/27 07:56:38;;;;;;;14.23;6.95;;;;;;;4.00;52.93;100612.66;5052906;28;20108;-38
2022/01/27 07:59:03;;;;;;;15.13;8.07;;;;;;;4.13;52.64;100605.31;5052929;28;20067;-36
2022/01/27 08:01:29;;;;;;;12.05;6.68;;;;;;;4.11;52.95;100615.16;5051812;28;20029;-37
2022/01/27 08:03:54;;;;;;;10.30;5.68;;;;;;;4.21;52.55;100615.16;5053201;28;20046;-37
2022/01/27 08:06:20;;;;;;;8.90;5.57;;;;;;;4.06;53.23;100623.50;5052866;28;20033;-39
2022/01/27 08:08:45;;;;;;;11.38;5.18;;;;;;;4.14;53.16;100628.06;5052746;28;20032;-39
2022/01/27 08:11:11;;;;;;;10.10;5.60;;;;;;;4.36;52.58;100624.28;5052583;28;20029;-37
2022/01/27 08:13:37;;;;;;;9.15;5.45;;;;;;;4.30;52.84;100628.31;5052496;28;20029;-38
2022/01/27 08:16:03;;;;;;;9.10;5.30;;;;;;;4.39;52.54;100631.91;5052735;28;20038;-37
2022/01/27 08:18:28;;;;;;;10.40;5.53;;;;;;;4.37;52.74;100633.84;5052585;28;20124;-38
2022/01/27 08:20:54;;;;;;;13.85;6.78;;;;;;;4.29;52.26;100633.72;5052593;28;20400;-38
2022/01/27 08:23:20;;;;;;;27.02;11.60;;;;;;;4.25;53.22;100638.44;5052690;28;20028;-37
2022/01/27 08:25:49;;;;;;;14.75;6.65;;;;;;;4.16;53.00;100643.72;5052426;28;20385;-37
2022/01/27 08:28:28;;;;;;;15.70;7.00;;;;;;;4.35;52.81;100646.34;5052573;28;20021;-38
2022/01/27 08:30:56;;;;;;;11.43;6.60;;;;;;;4.18;52.83;100647.88;5052716;28;20091;-38
2022/01/27 08:33:23;;;;;;;11.52;6.97;;;;;;;4.28;53.59;100646.09;5052503;28;20031;-38
2022/01/27 08:35:48;;;;;;;15.20;7.75;;;;;;;4.35;52.69;100637.59;5052416;28;20029;-38
2022/01/27 08:38:14;;;;;;;11.20;6.30;;;;;;;4.74;52.75;100643.63;5052381;28;20036;-38
2022/01/27 08:40:39;;;;;;;37.90;8.85;;;;;;;4.46;52.61;100646.19;5052423;28;20021;-38
2022/01/27 08:43:05;;;;;;;12.95;7.28;;;;;;;4.33;53.45;100642.19;5052379;28;20051;-38
2022/01/27 08:45:31;;;;;;;17.50;7.90;;;;;;;4.55;52.91;100649.78;5051267;28;20044;-38
2022/01/27 08:47:58;;;;;;;16.65;7.65;;;;;;;4.45;52.81;100648.94;5051051;28;20400;-38
2022/01/27 08:50:24;;;;;;;13.30;7.68;;;;;;;4.65;53.06;100647.94;5052189;28;20480;-39
2022/01/27 08:52:50;;;;;;;11.98;6.10;;;;;;;4.47;54.04;100649.63;5052129;28;20033;-37
2022/01/27 08:55:16;;;;;;;14.52;6.22;;;;;;;4.77;53.37;100656.50;5051890;28;20094;-39
2022/01/27 08:57:41;;;;;;;11.07;6.03;;;;;;;4.83;53.20;100645.38;5052051;28;20025;-39
2022/01/27 09:00:08;;;;;;;9.43;5.43;;;;;;;4.47;53.42;100652.28;5052503;28;20035;-37
2022/01/27 09:02:34;;;;;;;8.43;5.35;;;;;;;4.48;53.71;100651.31;5051832;28;20516;-38
2022/01/27 09:04:59;;;;;;;9.80;4.53;;;;;;;4.35;53.88;100643.69;5051786;28;20224;-38
2022/01/27 09:07:24;;;;;;;10.85;5.40;;;;;;;4.59;53.53;100648.53;5051766;28;20500;-38
2022/01/27 09:09:50;;;;;;;9.68;5.20;;;;;;;4.78;53.74;100647.63;5051445;28;20049;-38
2022/01/27 09:12:15;;;;;;;8.38;4.90;;;;;;;4.98;53.39;100655.47;5051759;28;20040;-38
2022/01/27 09:14:42;;;;;;;10.48;5.53;;;;;;;5.31;52.58;100643.50;5051685;28;20028;-38
2022/01/27 09:17:11;;;;;;;10.55;4.82;;;;;;;5.24;52.66;100647.72;5051469;28;20469;-38
2022/01/27 09:19:39;;;;;;;9.55;5.18;;;;;;;5.33;52.07;100652.13;5051770;28;20160;-38
2022/01/27 09:22:12;;;;;;;10.15;5.35;;;;;;;5.56;52.04;100651.69;5051367;28;20031;-38
2022/01/27 09:27:15;;;;;;;11.80;5.20;;;;;;;5.15;52.79;100641.50;5051772;28;20048;-37
2022/01/27 09:29:41;;;;;;;6.85;4.50;;;;;;;5.12;53.12;100647.06;5051196;28;20469;-37
2022/01/27 09:32:07;;;;;;;7.70;4.50;;;;;;;5.49;52.57;100639.09;5051284;28;20515;-37
2022/01/27 09:34:32;;;;;;;7.15;4.53;;;;;;;5.59;52.02;100639.03;5051114;28;20052;-37
2022/01/27 09:37:02;;;;;;;7.82;4.65;;;;;;;5.62;51.78;100628.19;5051812;28;20409;-38
2022/01/27 09:39:27;;;;;;;7.55;4.57;;;;;;;5.73;51.56;100637.72;5051212;28;20598;-39
2022/01/27 09:41:54;;;;;;;8.13;4.90;;;;;;;5.73;52.42;100628.94;5051416;28;20032;-37
2022/01/27 09:44:20;;;;;;;7.97;5.13;;;;;;;5.64;51.51;100630.69;5051042;28;20059;-37
2022/01/27 09:46:46;;;;;;;7.85;4.50;;;;;;;5.94;51.10;100631.28;5033785;28;20048;-37
2022/01/27 09:49:15;;;;;;;9.15;4.55;;;;;;;5.83;50.96;100624.44;5050254;28;20029;-37
2022/01/27 09:51:44;;;;;;;9.18;4.65;;;;;;;5.93;51.30;100619.06;5051863;28;20096;-37
2022/01/27 09:54:09;;;;;;;10.27;5.32;;;;;;;5.98;50.56;100608.91;5050120;28;20029;-37
2022/01/27 09:56:35;;;;;;;9.30;4.68;;;;;;;6.21;49.76;100607.44;5050819;28;20071;-37
2022/01/27 09:59:02;;;;;;;8.77;5.63;;;;;;;6.01;50.60;100613.88;5050586;28;20405;-37
2022/01/27 10:01:27;;;;;;;10.43;5.50;;;;;;;6.16;50.92;100603.59;5050929;28;20128;-38
2022/01/27 10:03:59;;;;;;;8.70;5.55;;;;;;;6.31;49.47;100599.41;5050792;28;20048;-38
2022/01/27 10:06:31;;;;;;;10.43;5.18;;;;;;;6.10;50.21;100594.47;5049156;28;20096;-38
2022/01/27 10:09:17;;;;;;;9.48;5.15;;;;;;;6.20;49.51;100587.25;5050029;28;20059;-38
2022/01/27 10:11:46;;;;;;;9.27;5.45;;;;;;;6.25;49.84;100586.81;5050126;28;20047;-37
2022/01/27 10:14:28;;;;;;;11.70;6.32;;;;;;;6.38;50.01;100587.22;5050478;28;20041;-38
2022/01/27 10:16:55;;;;;;;10.98;6.28;;;;;;;6.61;49.36;100589.34;5050555;28;20021;-37
2022/01/27 10:19:21;;;;;;;7.95;5.38;;;;;;;6.52;49.44;100587.66;5050262;28;20099;-39
2022/01/27 10:21:47;;;;;;;10.75;6.03;;;;;;;6.90;48.75;100585.53;5050196;28;20488;-37
2022/01/27 10:24:23;;;;;;;11.60;6.47;;;;;;;6.46;49.04;100579.34;5050289;28;20082;-38
2022/01/27 10:26:54;;;;;;;10.82;6.03;;;;;;;6.39;49.50;100575.66;5049887;28;20048;-37
2022/01/27 10:29:35;;;;;;;9.32;5.22;;;;;;;6.25;50.01;100571.78;5049745;28;20029;-38
2022/01/27 10:32:05;;;;;;;9.30;5.93;;;;;;;6.45;49.20;100563.63;5050308;28;20029;-38
2022/01/27 10:34:32;;;;;;;9.25;5.78;;;;;;;6.26;50.19;100565.50;5049994;28;20029;-37
2022/01/27 10:36:57;;;;;;;9.13;6.18;;;;;;;5.94;50.39;100559.94;5032015;28;20036;-38
2022/01/27 10:39:24;;;;;;;10.65;5.50;;;;;;;6.08;50.81;100556.78;5050021;28;20020;-38
2022/01/27 10:42:08;;;;;;;8.93;5.70;;;;;;;6.11;50.15;100551.22;5050097;28;20025;-38
2022/01/27 10:44:34;;;;;;;9.80;6.05;;;;;;;6.08;50.08;100554.16;5050246;28;20485;-38
2022/01/27 10:47:16;;;;;;;13.07;5.60;;;;;;;6.31;49.88;100543.06;5049991;28;20033;-39
2022/01/27 10:49:47;;;;;;;8.00;5.00;;;;;;;6.37;49.76;100545.09;5049514;28;20029;-38
2022/01/27 10:52:28;;;;;;;10.77;5.75;;;;;;;6.22;50.25;100544.81;5050177;28;20032;-38
2022/01/27 10:55:04;;;;;;;9.50;5.90;;;;;;;5.87;51.29;100538.59;5050049;28;20029;-38
2022/01/27 10:57:30;;;;;;;11.15;5.55;;;;;;;6.18;50.60;100531.09;5049942;28;20032;-37
2022/01/27 11:00:14;;;;;;;11.25;5.25;;;;;;;6.26;49.86;100541.72;5050076;28;20040;-38
2022/01/27 11:03:01;;;;;;;8.93;5.43;;;;;;;6.23;49.71;100531.44;5050288;28;20032;-38
2022/01/27 11:05:29;;;;;;;7.95;5.00;;;;;;;5.81;50.46;100536.59;5050420;28;20033;-38
2022/01/27 11:07:55;;;;;;;8.43;5.47;;;;;;;5.78;50.53;100536.88;5050381;28;20417;-40
2022/01/27 11:10:21;;;;;;;9.05;5.35;;;;;;;5.74;51.00;100530.25;5052761;28;20049;-38
2022/01/27 11:12:46;;;;;;;13.23;6.32;;;;;;;5.84;51.06;100525.69;5054748;28;20025;-38
2022/01/27 11:15:13;;;;;;;10.45;6.28;;;;;;;5.82;50.74;100519.75;5052758;28;20524;-38
2022/01/27 11:17:40;;;;;;;9.40;6.05;;;;;;;5.79;51.01;100517.41;5051290;28;20029;-38
2022/01/27 11:22:58;;;;;;;9.60;6.00;;;;;;;5.90;51.51;100518.97;5049992;28;20027;-38
2022/01/27 11:27:51;;;;;;;11.68;6.63;;;;;;;5.88;50.63;100511.19;5052701;28;20033;-38
2022/01/27 11:30:17;;;;;;;11.50;6.55;;;;;;;5.86;50.79;100514.00;5035158;28;20067;-49
2022/01/27 11:32:59;;;;;;;10.57;6.43;;;;;;;6.20;49.44;100509.78;5052224;28;20150;-48
2022/01/27 11:35:25;;;;;;;9.52;6.20;;;;;;;6.05;49.90;100517.44;5051311;28;20134;-47
2022/01/27 11:37:54;;;;;;;10.20;5.75;;;;;;;5.71;50.35;100509.41;5052624;28;20048;-48
2022/01/27 11:40:20;;;;;;;;;;;;;;;5.64;50.59;100510.03;5051904;28;20092;-48
2022/01/27 11:42:55;;;;;;;10.90;6.05;;;;;;;5.98;50.26;100511.16;5052771;28;20444;-52
2022/01/27 11:45:20;;;;;;;12.48;6.30;;;;;;;5.77;50.43;100508.78;5053394;28;20040;-50
2022/01/27 11:47:49;;;;;;;10.63;6.35;;;;;;;5.76;50.74;100501.88;5052640;28;20025;-51
2022/01/27 11:50:31;;;;;;;10.40;6.45;;;;;;;6.11;50.45;100506.28;5052787;28;20025;-52
2022/01/27 11:52:56;;;;;;;13.93;6.47;;;;;;;6.12;50.44;100504.47;5051210;28;20043;-52
2022/01/27 11:55:25;;;;;;;8.93;6.00;;;;;;;6.29;49.32;100497.47;5051632;28;20098;-51
2022/01/27 11:57:51;;;;;;;8.93;5.90;;;;;;;6.38;49.18;100496.53;5052081;28;20068;-52
2022/01/27 12:00:19;;;;;;;9.40;5.85;;;;;;;6.41;49.09;100489.06;5052484;28;20028;-52
2022/01/27 12:03:04;;;;;;;9.85;6.07;;;;;;;6.21;49.47;100480.56;5053043;28;20485;-53
2022/01/27 12:05:42;;;;;;;10.50;5.45;;;;;;;6.14;49.42;100482.16;5052753;28;20029;-51
2022/01/27 12:08:14;;;;;;;10.00;5.88;;;;;;;5.88;50.19;100480.34;5052837;28;20043;-51
2022/01/27 12:10:41;;;;;;;8.07;5.10;;;;;;;6.08;49.51;100474.88;5052455;28;20055;-49
2022/01/27 12:13:33;;;;;;;9.13;5.43;;;;;;;6.11;49.61;100474.56;5052493;28;20090;-50
2022/01/27 12:16:26;;;;;;;9.15;5.82;;;;;;;6.28;49.58;100472.00;5046984;28;20386;-49
2022/01/27 12:19:10;;;;;;;9.35;5.70;;;;;;;6.20;49.37;100468.31;5051908;28;20021;-52
2022/01/27 12:21:51;;;;;;;10.63;5.40;;;;;;;6.10;49.49;100467.63;5050115;28;20021;-51
2022/01/27 12:24:30;;;;;;;9.43;5.53;;;;;;;5.84;50.23;100472.88;5031419;28;20076;-53